createdAt,value
2023-05-01T00:01:45.989Z,8.32
2023-05-01T00:04:13.275Z,8.29
2023-05-01T00:06:40.639Z,8.20
2023-05-01T00:09:08.305Z,8.16
2023-05-01T00:11:37.400Z,8.19
2023-05-01T00:14:04.710Z,8.13
2023-05-01T00:16:31.877Z,8.17
2023-05-01T00:18:58.963Z,8.23
2023-05-01T00:21:26.117Z,8.14
2023-05-01T00:23:53.182Z,8.11
2023-05-01T00:26:20.390Z,8.21
2023-05-01T00:28:50.707Z,8.18
2023-05-01T00:31:18.408Z,8.15
2023-05-01T00:33:45.548Z,8.13
2023-05-01T00:36:12.719Z,8.03
2023-05-01T00:38:39.871Z,8.04
2023-05-01T00:41:06.996Z,7.97
2023-05-01T00:43:34.143Z,8.04
2023-05-01T00:46:01.738Z,7.95
2023-05-01T00:48:28.954Z,8.01
2023-05-01T00:50:56.289Z,7.99
2023-05-01T00:53:24.262Z,7.99
2023-05-01T00:55:51.393Z,7.96
2023-05-01T00:58:18.792Z,8.03
2023-05-01T01:00:46.301Z,8.00
2023-05-01T01:03:13.409Z,7.94
2023-05-01T01:05:46.678Z,7.99
2023-05-01T01:08:13.906Z,7.77
2023-05-01T01:11:08.412Z,7.72
2023-05-01T01:13:39.455Z,7.77
2023-05-01T01:16:07.206Z,7.70
2023-05-01T01:18:37.928Z,7.81
2023-05-01T01:21:28.328Z,7.71
2023-05-01T01:24:12.049Z,7.56
2023-05-01T01:26:58.696Z,7.60
2023-05-01T01:29:45.109Z,7.49
2023-05-01T01:32:31.739Z,7.53
2023-05-01T01:35:02.765Z,7.52
2023-05-01T01:37:33.269Z,7.55
2023-05-01T01:40:01.049Z,7.33
2023-05-01T01:42:34.744Z,7.48
2023-05-01T01:45:05.147Z,7.42
2023-05-01T01:47:33.490Z,7.32
2023-05-01T01:50:04.371Z,7.31
2023-05-01T01:52:33.390Z,7.29
2023-05-01T01:55:05.267Z,7.37
2023-05-01T01:57:33.410Z,7.46
2023-05-01T02:00:00.660Z,7.31
2023-05-01T02:02:28.670Z,7.22
2023-05-01T02:04:57.122Z,7.17
2023-05-01T02:07:24.830Z,7.22
2023-05-01T02:09:53.634Z,7.21
2023-05-01T02:12:23.516Z,7.25
2023-05-01T02:14:51.672Z,7.18
2023-05-01T02:17:20.965Z,7.25
2023-05-01T02:19:48.967Z,7.26
2023-05-01T02:22:17.189Z,7.24
2023-05-01T02:24:45.629Z,7.19
2023-05-01T02:27:19.943Z,7.14
2023-05-01T02:29:47.219Z,7.10
2023-05-01T02:32:14.563Z,7.15
2023-05-01T02:34:42.127Z,7.18
2023-05-01T02:37:11.288Z,7.10
2023-05-01T02:39:39.777Z,7.14
2023-05-01T02:42:09.542Z,7.14
2023-05-01T02:44:41.967Z,7.08
2023-05-01T02:47:11.105Z,6.98
2023-05-01T02:49:40.696Z,7.01
2023-05-01T02:52:08.329Z,6.92
2023-05-01T02:57:38.437Z,6.81
2023-05-01T03:00:09.445Z,6.93
2023-05-01T03:02:36.805Z,6.84
2023-05-01T03:05:04.086Z,6.98
2023-05-01T03:07:35.169Z,6.96
2023-05-01T03:10:06.673Z,6.98
2023-05-01T03:12:34.043Z,6.78
2023-05-01T03:15:01.150Z,6.89
2023-05-01T03:17:28.247Z,6.91
2023-05-01T03:19:56.322Z,6.94
2023-05-01T03:22:23.759Z,6.90
2023-05-01T03:24:51.117Z,6.86
2023-05-01T03:27:18.304Z,6.81
2023-05-01T03:29:45.591Z,6.78
2023-05-01T03:32:12.770Z,6.73
2023-05-01T03:34:40.119Z,6.59
2023-05-01T03:37:07.529Z,6.68
2023-05-01T03:39:34.678Z,6.61
2023-05-01T03:42:20.462Z,6.54
2023-05-01T03:44:47.928Z,6.60
2023-05-01T03:47:16.097Z,6.61
2023-05-01T03:49:43.742Z,6.49
2023-05-01T03:52:14.744Z,6.46
2023-05-01T03:54:43.054Z,6.50
2023-05-01T03:57:27.497Z,6.49
2023-05-01T03:59:55.196Z,6.45
2023-05-01T04:02:22.640Z,6.50
2023-05-01T04:04:50.694Z,6.55
2023-05-01T04:07:18.170Z,6.54
2023-05-01T04:09:48.495Z,6.52
2023-05-01T04:12:15.911Z,6.51
2023-05-01T04:14:44.466Z,6.50
2023-05-01T04:17:12.352Z,6.48
2023-05-01T04:19:39.806Z,6.50
2023-05-01T04:22:07.127Z,6.55
2023-05-01T04:24:36.585Z,6.46
2023-05-01T04:27:04.843Z,6.55
2023-05-01T04:29:32.413Z,6.56
2023-05-01T04:31:59.969Z,6.50
2023-05-01T04:34:29.432Z,6.50
2023-05-01T04:36:59.556Z,6.63
2023-05-01T04:39:26.668Z,6.75
2023-05-01T04:41:54.248Z,6.73
2023-05-01T04:44:21.561Z,6.78
2023-05-01T04:46:48.896Z,6.99
2023-05-01T04:49:16.362Z,7.27
2023-05-01T04:51:43.564Z,7.19
2023-05-01T04:54:14.091Z,6.98
2023-05-01T04:56:41.518Z,6.99
2023-05-01T04:59:09.242Z,6.99
2023-05-01T05:01:36.633Z,7.03
2023-05-01T05:04:04.567Z,7.06
2023-05-01T05:06:32.172Z,7.03
2023-05-01T05:08:59.296Z,7.10
2023-05-01T05:11:26.964Z,7.07
2023-05-01T05:13:59.067Z,7.06
2023-05-01T05:16:26.368Z,7.10
2023-05-01T05:18:55.378Z,7.13
2023-05-01T05:21:22.675Z,7.19
2023-05-01T05:23:53.722Z,7.24
2023-05-01T05:26:20.931Z,7.34
2023-05-01T05:28:50.206Z,7.36
2023-05-01T05:31:17.490Z,7.55
2023-05-01T05:33:45.108Z,7.60
2023-05-01T05:36:14.222Z,7.62
2023-05-01T05:38:43.792Z,7.76
2023-05-01T05:41:14.596Z,8.01
2023-05-01T05:43:42.328Z,8.09
2023-05-01T05:46:09.952Z,8.11
2023-05-01T05:48:38.294Z,8.15
2023-05-01T05:51:05.946Z,8.38
2023-05-01T05:53:33.382Z,8.56
2023-05-01T05:56:00.763Z,9.08
2023-05-01T05:58:27.874Z,8.99
2023-05-01T06:00:56.030Z,9.14
2023-05-01T06:03:23.683Z,9.37
2023-05-01T06:05:53.364Z,9.28
2023-05-01T06:08:20.670Z,9.37
2023-05-01T06:10:48.240Z,9.15
2023-05-01T06:13:15.998Z,9.54
2023-05-01T06:15:46.336Z,9.91
2023-05-01T06:18:13.785Z,9.78
2023-05-01T06:20:41.088Z,9.78
2023-05-01T06:23:09.725Z,9.50
2023-05-01T06:26:12.875Z,9.68
2023-05-01T06:28:40.628Z,9.92
2023-05-01T06:31:08.293Z,10.13
2023-05-01T06:33:40.815Z,9.98
2023-05-01T06:36:17.503Z,10.14
2023-05-01T06:38:48.783Z,10.20
2023-05-01T06:41:16.826Z,10.44
2023-05-01T06:43:44.786Z,10.65
2023-05-01T06:46:12.691Z,10.34
2023-05-01T06:48:39.837Z,10.27
2023-05-01T06:51:07.071Z,10.26
2023-05-01T06:53:34.863Z,10.32
2023-05-01T06:56:02.024Z,10.21
2023-05-01T06:58:29.140Z,10.35
2023-05-01T07:00:56.480Z,10.32
2023-05-01T07:03:23.783Z,10.67
2023-05-01T07:05:50.951Z,10.69
2023-05-01T07:08:18.267Z,10.66
2023-05-01T07:10:45.503Z,10.68
2023-05-01T07:13:12.721Z,10.84
2023-05-01T07:15:39.853Z,10.94
2023-05-01T07:18:07.078Z,10.86
2023-05-01T07:20:34.896Z,11.15
2023-05-01T07:23:02.134Z,11.18
2023-05-01T07:25:29.997Z,10.63
2023-05-01T07:27:57.388Z,10.46
2023-05-01T07:30:24.664Z,10.70
2023-05-01T07:32:52.861Z,10.91
2023-05-01T07:35:20.317Z,10.81
2023-05-01T07:37:47.912Z,10.74
2023-05-01T07:40:15.086Z,10.77
2023-05-01T07:42:42.163Z,11.14
2023-05-01T07:45:09.412Z,11.02
2023-05-01T07:47:36.672Z,10.92
2023-05-01T07:50:04.445Z,10.77
2023-05-01T07:52:31.626Z,10.96
2023-05-01T07:54:58.701Z,10.94
2023-05-01T07:57:25.882Z,10.88
2023-05-01T07:59:56.886Z,10.67
2023-05-01T08:02:24.338Z,10.92
2023-05-01T08:04:51.600Z,10.75
2023-05-01T08:07:19.077Z,10.87
2023-05-01T08:09:46.368Z,10.84
2023-05-01T08:12:13.788Z,10.91
2023-05-01T08:14:40.928Z,11.11
2023-05-01T08:17:08.061Z,11.01
2023-05-01T08:19:35.165Z,11.06
2023-05-01T08:22:02.249Z,10.98
2023-05-01T08:24:29.953Z,10.90
2023-05-01T08:26:58.301Z,11.19
2023-05-01T08:29:25.455Z,11.11
2023-05-01T08:31:52.815Z,11.47
2023-05-01T08:34:20.031Z,11.49
2023-05-01T08:36:47.220Z,11.47
2023-05-01T08:39:15.341Z,11.37
2023-05-01T08:41:48.803Z,11.42
2023-05-01T08:44:16.901Z,11.55
2023-05-01T08:46:53.482Z,11.69
2023-05-01T08:49:22.162Z,11.77
2023-05-01T08:51:50.671Z,11.86
2023-05-01T08:54:19.785Z,11.75
2023-05-01T08:56:47.400Z,11.51
2023-05-01T08:59:15.189Z,11.58
2023-05-01T09:01:43.603Z,11.66
2023-05-01T09:04:11.999Z,11.60
2023-05-01T09:06:39.587Z,11.67
2023-05-01T09:21:07.803Z,11.97
2023-05-01T09:23:37.460Z,11.79
2023-05-01T09:26:05.975Z,11.96
2023-05-01T09:28:43.776Z,12.12
2023-05-01T09:31:21.037Z,11.86
2023-05-01T09:33:51.681Z,11.92
2023-05-01T09:36:18.897Z,11.69
2023-05-01T09:38:46.131Z,11.78
2023-05-01T09:41:13.197Z,12.00
2023-05-01T09:43:40.309Z,11.89
2023-05-01T09:46:10.886Z,12.00
2023-05-01T09:48:38.607Z,12.11
2023-05-01T09:51:22.295Z,12.21
2023-05-01T09:53:50.157Z,12.31
2023-05-01T09:56:17.979Z,12.25
2023-05-01T09:58:45.185Z,12.09
2023-05-01T10:01:12.379Z,12.38
2023-05-01T10:03:40.033Z,12.49
2023-05-01T10:06:09.150Z,12.49
2023-05-01T10:08:46.536Z,12.52
2023-05-01T10:11:14.100Z,12.53
2023-05-01T10:13:41.713Z,12.32
2023-05-01T10:16:27.951Z,12.20
2023-05-01T10:18:57.255Z,12.32
2023-05-01T10:21:24.467Z,12.27
2023-05-01T10:23:52.453Z,12.20
2023-05-01T10:26:20.778Z,12.32
2023-05-01T10:28:48.994Z,12.31
2023-05-01T10:31:16.577Z,12.44
2023-05-01T10:33:44.715Z,12.36
2023-05-01T10:36:15.785Z,12.46
2023-05-01T10:38:48.095Z,12.51
2023-05-01T10:41:16.689Z,12.51
2023-05-01T10:43:43.987Z,12.43
2023-05-01T10:48:54.516Z,12.47
2023-05-01T10:51:27.711Z,12.44
2023-05-01T10:54:16.724Z,12.31
2023-05-01T10:56:44.182Z,12.15
2023-05-01T10:59:12.884Z,12.16
2023-05-01T11:01:40.823Z,12.00
2023-05-01T11:04:21.632Z,12.07
2023-05-01T11:06:57.665Z,12.10
2023-05-01T11:09:43.553Z,12.02
2023-05-01T11:12:11.596Z,12.04
2023-05-01T11:14:54.136Z,12.03
2023-05-01T11:17:40.136Z,12.03
2023-05-01T11:20:07.664Z,12.04
2023-05-01T11:22:36.044Z,11.91
2023-05-01T11:25:06.092Z,11.92
2023-05-01T11:27:33.341Z,11.98
2023-05-01T11:30:00.456Z,11.90
2023-05-01T11:32:30.026Z,11.98
2023-05-01T11:34:57.964Z,11.99
2023-05-01T11:37:41.048Z,12.00
2023-05-01T11:40:19.107Z,12.04
2023-05-01T11:42:46.204Z,12.02
2023-05-01T11:45:13.443Z,11.89
2023-05-01T11:47:41.180Z,11.84
2023-05-01T11:50:08.960Z,11.81
2023-05-01T11:52:46.528Z,11.80
2023-05-01T11:55:13.731Z,11.87
2023-05-01T11:57:50.907Z,11.89
2023-05-01T12:00:28.288Z,11.92
2023-05-01T12:02:59.763Z,11.86
2023-05-01T12:05:28.766Z,11.93
2023-05-01T12:08:14.765Z,11.95
2023-05-01T12:10:43.379Z,12.02
2023-05-01T12:13:11.702Z,11.90
2023-05-01T12:15:40.729Z,11.98
2023-05-01T12:18:08.245Z,11.99
2023-05-01T12:20:38.188Z,12.04
2023-05-01T12:23:06.169Z,11.98
2023-05-01T12:25:34.217Z,11.95
2023-05-01T12:28:08.555Z,12.08
2023-05-01T12:30:35.904Z,12.14
2023-05-01T12:33:10.457Z,12.16
2023-05-01T12:35:37.728Z,12.15
2023-05-01T12:38:12.845Z,12.24
2023-05-01T12:40:40.653Z,11.99
2023-05-01T12:43:07.839Z,11.97
2023-05-01T12:45:38.779Z,12.01
2023-05-01T12:48:12.665Z,12.11
2023-05-01T12:50:40.076Z,12.07
2023-05-01T12:53:09.681Z,12.16
2023-05-01T12:56:03.462Z,12.14
2023-05-01T12:58:37.276Z,12.22
2023-05-01T13:01:04.671Z,12.22
2023-05-01T13:03:32.855Z,12.16
2023-05-01T13:06:01.585Z,12.23
2023-05-01T13:08:30.185Z,12.20
2023-05-01T13:10:58.588Z,12.23
2023-05-01T13:13:26.730Z,12.31
2023-05-01T13:15:54.078Z,12.04
2023-05-01T13:18:21.476Z,12.15
2023-05-01T13:20:48.660Z,12.19
2023-05-01T13:23:15.877Z,12.22
2023-05-01T13:25:43.015Z,12.19
2023-05-01T13:28:11.610Z,12.08
2023-05-01T13:30:39.320Z,12.16
2023-05-01T13:33:07.832Z,12.23
2023-05-01T13:35:35.816Z,12.36
2023-05-01T13:38:03.555Z,12.40
2023-05-01T13:40:34.069Z,12.40
2023-05-01T13:43:01.605Z,12.33
2023-05-01T13:45:28.818Z,12.32
2023-05-01T13:47:56.744Z,12.18
2023-05-01T13:50:23.847Z,12.25
2023-05-01T13:52:50.933Z,12.26
2023-05-01T13:55:18.842Z,12.31
2023-05-01T13:57:46.057Z,12.34
2023-05-01T14:00:19.743Z,12.47
2023-05-01T14:02:48.821Z,12.49
2023-05-01T14:05:16.819Z,12.49
2023-05-01T14:07:55.404Z,12.44
2023-05-01T14:10:23.723Z,12.49
2023-05-01T14:12:51.184Z,12.55
2023-05-01T14:15:18.281Z,12.69
2023-05-01T14:17:45.736Z,12.55
2023-05-01T14:20:13.052Z,12.65
2023-05-01T14:22:52.423Z,12.59
2023-05-01T14:25:31.263Z,12.67
2023-05-01T14:27:59.530Z,12.51
2023-05-01T14:30:27.229Z,12.68
2023-05-01T14:32:54.724Z,12.80
2023-05-01T14:35:22.818Z,12.78
2023-05-01T14:37:50.436Z,12.79
2023-05-01T15:28:58.306Z,13.40
2023-05-01T15:31:25.458Z,13.29
2023-05-01T15:33:52.525Z,13.21
2023-05-01T15:36:19.690Z,13.19
2023-05-01T15:38:47.276Z,13.28
2023-05-01T15:41:16.275Z,13.22
2023-05-01T15:43:44.953Z,12.95
2023-05-01T15:46:12.095Z,13.02
2023-05-01T15:48:39.208Z,13.14
2023-05-01T16:15:34.375Z,13.13
2023-05-01T16:18:03.901Z,13.26
2023-05-01T16:20:35.282Z,13.20
2023-05-01T16:23:02.746Z,13.29
2023-05-01T16:25:29.940Z,13.12
2023-05-01T16:27:57.064Z,13.17
2023-05-01T16:30:27.739Z,13.15
2023-05-01T16:32:55.022Z,13.16
2023-05-01T16:35:26.796Z,13.09
2023-05-01T16:37:54.316Z,13.01
2023-05-01T16:40:22.059Z,13.02
2023-05-01T16:42:50.577Z,12.96
2023-05-01T16:45:18.683Z,12.86
2023-05-01T16:47:45.979Z,12.87
2023-05-01T16:50:13.300Z,12.90
2023-05-01T16:52:40.535Z,12.95
2023-05-01T16:55:07.882Z,12.80
2023-05-01T16:57:34.963Z,12.75
2023-05-01T17:00:03.143Z,12.70
2023-05-01T17:02:30.433Z,12.72
2023-05-01T17:04:57.483Z,12.79
2023-05-01T17:07:24.496Z,12.76
2023-05-01T17:09:51.757Z,12.72
2023-05-01T17:12:18.826Z,12.64
2023-05-01T17:14:46.097Z,12.63
2023-05-01T17:17:13.260Z,12.67
2023-05-01T17:19:40.509Z,12.58
2023-05-01T17:22:07.706Z,12.51
2023-05-01T17:24:35.345Z,12.49
2023-05-01T17:27:03.631Z,12.41
2023-05-01T17:29:30.809Z,12.43
2023-05-01T17:31:57.977Z,12.47
2023-05-01T17:34:25.062Z,12.41
2023-05-01T17:36:52.315Z,12.29
2023-05-01T17:39:21.629Z,12.22
2023-05-01T17:41:48.975Z,12.24
2023-05-01T17:44:16.174Z,12.25
2023-05-01T17:46:43.184Z,12.23
2023-05-01T17:49:10.251Z,12.09
2023-05-01T17:51:37.393Z,12.06
2023-05-01T17:54:05.754Z,11.88
2023-05-01T17:56:32.888Z,11.88
2023-05-01T17:59:00.057Z,11.87
2023-05-01T18:01:28.270Z,11.82
2023-05-01T18:03:55.588Z,11.70
2023-05-01T18:06:22.839Z,11.62
2023-05-01T18:08:50.264Z,11.53
2023-05-01T18:11:17.532Z,11.44
2023-05-01T18:13:47.920Z,11.43
2023-05-01T18:16:15.660Z,11.53
2023-05-01T18:18:42.943Z,11.50
2023-05-01T18:21:10.252Z,11.48
2023-05-01T18:23:37.325Z,11.45
2023-05-01T18:26:05.053Z,11.44
2023-05-01T18:28:33.500Z,11.37
2023-05-01T18:31:00.726Z,11.33
2023-05-01T18:33:27.841Z,11.30
2023-05-01T18:35:54.938Z,11.27
2023-05-01T18:38:22.118Z,11.19
2023-05-01T18:40:49.234Z,11.14
2023-05-01T18:43:16.268Z,11.09
2023-05-01T18:45:43.311Z,11.06
2023-05-01T18:48:10.561Z,10.96
2023-05-01T18:50:37.687Z,10.86
2023-05-01T18:53:04.814Z,10.88
2023-05-01T18:55:33.173Z,10.79
2023-05-01T18:58:01.900Z,10.83
2023-05-01T19:00:29.727Z,10.70
2023-05-01T19:02:56.883Z,10.71
2023-05-01T19:05:25.175Z,10.77
2023-05-01T19:07:55.083Z,10.73
2023-05-01T19:10:22.167Z,10.68
2023-05-01T19:12:49.243Z,10.67
2023-05-01T19:15:16.404Z,10.63
2023-05-01T19:17:43.562Z,10.52
2023-05-01T19:20:10.833Z,10.48
2023-05-01T19:22:37.965Z,10.45
2023-05-01T19:25:05.289Z,10.39
2023-05-01T19:27:32.484Z,10.38
2023-05-01T19:30:01.211Z,10.37
2023-05-01T19:32:29.177Z,10.37
2023-05-01T19:34:56.749Z,10.38
2023-05-01T19:37:23.976Z,10.32
2023-05-01T19:39:51.138Z,10.35
2023-05-01T19:42:18.278Z,10.25
2023-05-01T19:44:45.643Z,10.21
2023-05-01T19:47:12.804Z,10.20
2023-05-01T19:49:40.175Z,10.24
2023-05-01T19:52:07.313Z,10.18
2023-05-01T19:54:34.418Z,10.15
2023-05-01T19:57:02.045Z,10.27
2023-05-01T19:59:30.716Z,10.28
2023-05-01T20:01:59.614Z,10.14
2023-05-01T20:04:28.502Z,10.16
2023-05-01T20:06:55.908Z,10.19
2023-05-01T20:09:23.754Z,10.20
2023-05-01T20:11:51.186Z,10.11
2023-05-01T20:14:18.366Z,9.96
2023-05-01T20:16:46.064Z,9.94
2023-05-01T20:19:13.680Z,9.97
2023-05-01T20:21:41.027Z,10.05
2023-05-01T20:24:08.297Z,10.07
2023-05-01T20:26:35.427Z,10.03
2023-05-01T20:29:02.648Z,9.89
2023-05-01T20:31:29.837Z,9.86
2023-05-01T20:33:56.936Z,9.69
2023-05-01T20:36:25.352Z,9.75
2023-05-01T20:38:53.223Z,9.82
2023-05-01T20:41:20.827Z,9.85
2023-05-01T20:43:48.027Z,9.80
2023-05-01T20:46:15.149Z,9.81
2023-05-01T20:48:42.695Z,9.81
2023-05-01T20:51:09.750Z,9.84
2023-05-01T20:53:36.830Z,9.72
2023-05-01T20:56:04.083Z,9.60
2023-05-01T20:58:31.125Z,9.59
2023-05-01T21:00:58.381Z,9.50
2023-05-01T21:03:27.469Z,9.59
2023-05-01T21:06:01.339Z,9.62
2023-05-01T21:08:28.569Z,9.60
2023-05-01T21:10:55.694Z,9.51
2023-05-01T21:13:24.808Z,9.53
2023-05-01T21:15:52.531Z,9.44
2023-05-01T21:18:23.571Z,9.30
2023-05-01T21:20:51.060Z,9.32
2023-05-01T21:23:18.234Z,9.48
2023-05-01T21:25:45.305Z,9.54
2023-05-01T21:28:13.189Z,9.56
2023-05-01T21:30:40.709Z,9.41
2023-05-01T21:33:11.845Z,9.49
2023-05-01T21:35:41.074Z,9.55
2023-05-01T21:38:08.526Z,9.56
2023-05-01T21:40:40.215Z,9.56
2023-05-01T21:43:07.647Z,9.55
2023-05-01T21:45:40.133Z,9.56
2023-05-01T21:48:08.233Z,9.55
2023-05-01T21:50:37.458Z,9.54
2023-05-01T21:53:05.877Z,9.45
2023-05-01T21:55:33.523Z,9.44
2023-05-01T21:58:01.182Z,9.42
2023-05-01T22:00:29.937Z,9.44
2023-05-01T22:02:57.313Z,9.46
2023-05-01T22:05:24.598Z,9.37
2023-05-01T22:07:52.741Z,9.41
2023-05-01T22:10:20.073Z,9.42
2023-05-01T22:12:49.303Z,9.39
2023-05-01T22:15:16.712Z,9.36
2023-05-01T22:17:44.503Z,9.33
2023-05-01T22:20:11.816Z,9.31
2023-05-01T22:22:39.555Z,9.31
2023-05-01T22:25:07.061Z,9.31
2023-05-01T22:27:34.677Z,9.26
2023-05-01T22:30:02.524Z,9.20
2023-05-01T22:32:30.066Z,9.12
2023-05-01T22:34:57.141Z,9.13
2023-05-01T22:37:25.672Z,9.10
2023-05-01T22:39:53.396Z,9.03
2023-05-01T22:42:20.947Z,8.98
2023-05-01T22:44:48.445Z,8.95
2023-05-01T22:47:15.751Z,8.79
2023-05-01T22:49:42.821Z,8.80
2023-05-01T22:52:09.854Z,8.87
2023-05-01T22:54:36.954Z,8.83
2023-05-01T22:57:04.423Z,8.80
2023-05-01T22:59:31.601Z,8.84
2023-05-01T23:02:01.422Z,8.81
2023-05-01T23:04:28.604Z,8.81
2023-05-01T23:06:56.773Z,8.84
2023-05-01T23:09:24.026Z,8.80
2023-05-01T23:11:51.052Z,8.71
2023-05-01T23:14:18.273Z,8.68
2023-05-01T23:16:45.625Z,8.65
2023-05-01T23:19:20.269Z,8.58
2023-05-01T23:21:47.955Z,8.53
2023-05-01T23:24:19.597Z,8.43
2023-05-01T23:26:47.170Z,8.50
2023-05-01T23:29:16.077Z,8.47
2023-05-01T23:31:44.696Z,8.39
2023-05-01T23:34:15.045Z,8.32
2023-05-01T23:36:43.633Z,8.32
2023-05-01T23:39:10.753Z,8.35
2023-05-01T23:41:37.955Z,8.34
2023-05-01T23:44:05.186Z,8.32
2023-05-01T23:46:32.346Z,8.26
2023-05-01T23:48:59.652Z,8.25
2023-05-01T23:51:27.800Z,8.19
2023-05-01T23:53:55.085Z,8.13
2023-05-01T23:56:22.342Z,8.13
2023-05-01T23:58:49.372Z,8.09
